Sycamore, Georgia
Current Conditions -  °F | °C
As of 10:15 PM on Friday 21 Nov 2014 (Local Time) from KTMA Reporting Station
Clear Clear  
Wind Chill: 49°   Ceiling: Unl
Heat Index: 49°   Visibility: 10mi
Dew Point: 33°   Wind: 0mph
Humidity: 54%   Direction: NA
Pressure: 30.38"   Gusts: NA
Location:  31.67°N, 83.64°W
Report Text: KTMA 220315Z AUTO 00000KT 10SM CLR 10/01 A3038 RMK AO2 T00950005
Loading
Personal Weather Stations






























Interactive Weather Map New forecast layout! Learn more

10-Day Weather Forecast

Advertisements
Track Severe Weather on mobile